Crabtree, Canada
Current Conditions -  °F | °C
As of 11:10 PM on Wednesday 17 Dec 2014 (Local Time) from CYHU Reporting Station
Light Snow Light Snow  
Wind Chill: 27°   Ceiling: 400
Heat Index: 32°   Visibility: 3mi
Dew Point: 30°   Wind: 5mph
Humidity: 93%   Direction: 300°WNW
Pressure: 29.77"   Gusts: NA
Location:  45.97°N, 73.47°W
Report Text: CYHU 180410Z AUTO 30004KT 3SM -SN OVC004 M00/M01 A2977 RMK SLP081
Loading
Personal Weather Stations






























Interactive Weather Map New forecast layout! Learn more

10-Day Weather Forecast

Advertisements
Track Severe Weather on mobile